Time;durP1;ratioP1;P1;durP2;ratioP2;P2;SDS_P1;SDS_P2;PMS_P1;PMS_P2;Temp;Humidity;BMP_temperature;BMP_pressure;BME280_temperature;BME280_humidity;BME280_pressure;Samples;Min_cycle;Max_cycle;Signal;HPM_P1;HPM_P2
2022/01/16 00:00:51;;;;;;;9.60;7.20;;;3.90;99.90;;;;;;5070418;28;20416;-68
2022/01/16 00:06:01;;;;;;;9.13;7.27;;;4.00;99.90;;;;;;5070097;28;20446;-68
2022/01/16 00:08:26;;;;;;;8.63;6.50;;;4.10;99.90;;;;;;5070482;28;20444;-71
2022/01/16 00:10:52;;;;;;;9.37;7.13;;;4.20;99.90;;;;;;5070493;28;20216;-67
2022/01/16 00:13:18;;;;;;;11.33;8.20;;;4.30;99.90;;;;;;5070670;28;20181;-67
2022/01/16 00:15:46;;;;;;;11.60;8.17;;;4.40;99.90;;;;;;5069930;28;20187;-68
2022/01/16 00:18:24;;;;;;;9.17;7.63;;;4.40;99.90;;;;;;5070308;28;20159;-69
2022/01/16 00:20:50;;;;;;;10.70;7.67;;;4.40;99.90;;;;;;5069896;28;20533;-68
2022/01/16 00:23:23;;;;;;;9.50;6.97;;;4.40;99.90;;;;;;5070198;28;20420;-68
2022/01/16 00:25:53;;;;;;;8.60;6.83;;;4.50;99.90;;;;;;5068479;28;20451;-66
2022/01/16 00:28:20;;;;;;;11.00;8.50;;;4.50;99.90;;;;;;5066707;28;20477;-68
2022/01/16 00:30:46;;;;;;;10.27;8.37;;;4.50;99.90;;;;;;5049479;28;20452;-68
2022/01/16 00:33:12;;;;;;;11.87;8.23;;;4.60;99.90;;;;;;5049797;28;20424;-68
2022/01/16 00:35:37;;;;;;;11.43;8.20;;;4.50;99.90;;;;;;5065462;28;20455;-67
2022/01/16 00:38:04;;;;;;;9.53;7.70;;;4.50;99.90;;;;;;5059893;28;20254;-69
2022/01/16 00:40:29;;;;;;;11.30;8.00;;;4.40;99.90;;;;;;5061928;28;20543;-70
2022/01/16 00:42:57;;;;;;;10.93;7.40;;;4.20;99.90;;;;;;5064652;28;20979;-68
2022/01/16 00:45:23;;;;;;;9.77;7.53;;;4.20;99.90;;;;;;5071335;28;20593;-70
2022/01/16 00:47:48;;;;;;;10.90;8.60;;;4.10;99.90;;;;;;5050821;28;20478;-68
2022/01/16 00:50:14;;;;;;;8.17;6.90;;;4.00;99.90;;;;;;5071438;28;20472;-68
2022/01/16 00:52:39;;;;;;;12.20;8.20;;;4.00;99.90;;;;;;5072690;28;20178;-67
2022/01/16 00:55:05;;;;;;;12.00;8.37;;;4.00;99.90;;;;;;5073476;28;20192;-68
2022/01/16 00:57:31;;;;;;;12.07;8.13;;;4.00;99.90;;;;;;5072566;28;20173;-66
2022/01/16 00:59:57;;;;;;;12.50;7.93;;;4.00;99.90;;;;;;5073381;28;20462;-68
2022/01/16 01:02:23;;;;;;;13.50;9.83;;;4.00;99.90;;;;;;5073281;28;20185;-69
2022/01/16 01:04:49;;;;;;;11.60;8.27;;;4.00;99.90;;;;;;5073374;28;20175;-69
2022/01/16 01:07:15;;;;;;;11.53;8.60;;;4.10;99.90;;;;;;5072817;28;20423;-69
2022/01/16 01:09:41;;;;;;;15.57;8.80;;;4.20;99.90;;;;;;5054675;28;20444;-69
2022/01/16 01:12:09;;;;;;;10.10;8.67;;;4.30;99.90;;;;;;5072675;28;20459;-68
2022/01/16 01:14:42;;;;;;;13.67;9.07;;;4.30;99.90;;;;;;5072624;28;20670;-71
2022/01/16 01:17:10;;;;;;;11.30;8.70;;;4.30;99.90;;;;;;5072481;28;20754;-70
2022/01/16 01:19:35;;;;;;;11.70;7.80;;;4.30;99.90;;;;;;5072366;28;20859;-69
2022/01/16 01:22:04;;;;;;;12.43;8.50;;;4.30;99.90;;;;;;5072043;28;20429;-69
2022/01/16 01:24:30;;;;;;;11.93;8.40;;;4.20;99.90;;;;;;5072471;28;20511;-70
2022/01/16 01:27:07;;;;;;;12.00;8.60;;;4.20;99.90;;;;;;5078032;22;20493;-70
2022/01/16 01:29:32;;;;;;;10.63;8.33;;;4.10;99.90;;;;;;5065687;28;20411;-69
2022/01/16 01:31:59;;;;;;;11.27;8.40;;;4.20;99.90;;;;;;5062043;28;20473;-70
2022/01/16 01:34:24;;;;;;;11.03;8.70;;;4.10;99.90;;;;;;5058638;28;20171;-69
2022/01/16 01:36:51;;;;;;;11.30;8.20;;;4.20;99.90;;;;;;5039502;28;20473;-70
2022/01/16 01:39:18;;;;;;;11.80;8.17;;;4.20;99.90;;;;;;5054238;28;20249;-69
2022/01/16 01:41:46;;;;;;;13.17;8.30;;;4.30;99.90;;;;;;5052575;28;20975;-69
2022/01/16 01:52:24;;;;;;;9.93;7.43;;;4.30;99.90;;;;;;5052501;28;20375;-69
2022/01/16 01:54:51;;;;;;;13.00;8.43;;;4.30;99.90;;;;;;5034179;28;20423;-70
2022/01/16 01:57:16;;;;;;;12.23;8.23;;;4.40;99.90;;;;;;5047117;28;20429;-69
2022/01/16 01:59:42;;;;;;;13.80;8.67;;;4.40;99.90;;;;;;5050978;28;20772;-67
2022/01/16 02:02:07;;;;;;;13.80;8.70;;;4.30;99.90;;;;;;5051975;28;20556;-70
2022/01/16 02:04:33;;;;;;;12.40;9.30;;;4.30;99.90;;;;;;5050523;28;20170;-70
2022/01/16 02:06:59;;;;;;;12.37;8.30;;;4.20;99.90;;;;;;5051341;28;20553;-68
2022/01/16 02:09:25;;;;;;;13.13;8.73;;;4.10;99.90;;;;;;5051493;28;20407;-69
2022/01/16 02:11:52;;;;;;;13.53;9.70;;;4.00;99.90;;;;;;5051566;28;20567;-68
2022/01/16 02:28:19;;;;;;;16.83;10.87;;;4.10;99.90;;;;;;5048480;28;20381;-68
2022/01/16 02:36:21;;;;;;;19.00;12.70;;;3.90;99.90;;;;;;5043457;28;20432;-68
2022/01/16 02:38:48;;;;;;;23.97;14.43;;;4.00;99.90;;;;;;5033963;28;20932;-69
2022/01/16 02:41:13;;;;;;;24.57;14.20;;;4.10;99.90;;;;;;5051279;28;20905;-68
2022/01/16 02:43:45;;;;;;;25.00;14.77;;;4.10;99.90;;;;;;5051898;28;20416;-68
2022/01/16 02:48:44;;;;;;;23.73;15.37;;;4.10;99.90;;;;;;5051796;28;20412;-69
2022/01/16 02:51:11;;;;;;;23.33;14.57;;;4.20;99.90;;;;;;5051393;28;20959;-68
2022/01/16 02:53:36;;;;;;;25.57;15.70;;;4.20;99.90;;;;;;5033526;28;20504;-69
2022/01/16 02:56:03;;;;;;;26.53;16.30;;;4.10;99.90;;;;;;5051237;28;20563;-70
2022/01/16 02:58:29;;;;;;;28.33;17.30;;;4.10;99.90;;;;;;5051909;28;20203;-68
2022/01/16 03:00:54;;;;;;;27.90;16.97;;;4.00;99.90;;;;;;5051625;28;20506;-68
2022/01/16 03:03:20;;;;;;;29.07;17.27;;;4.00;99.90;;;;;;5051801;28;20178;-68
2022/01/16 03:05:47;;;;;;;28.20;16.90;;;4.10;99.90;;;;;;5051146;28;20194;-68
2022/01/16 03:08:13;;;;;;;29.30;17.47;;;4.20;99.90;;;;;;5053783;28;20286;-69
2022/01/16 03:13:24;;;;;;;27.63;18.30;;;4.30;99.90;;;;;;5052143;28;20244;-68
2022/01/16 03:15:52;;;;;;;25.97;17.40;;;4.20;99.90;;;;;;5053784;28;21114;-68
2022/01/16 03:23:31;;;;;;;33.60;19.50;;;4.30;99.90;;;;;;5055751;28;20900;-68
2022/01/16 03:25:57;;;;;;;34.60;19.80;;;4.30;99.90;;;;;;5055520;28;20470;-68
2022/01/16 03:28:25;;;;;;;29.43;19.33;;;4.30;99.90;;;;;;5046543;28;20413;-68
2022/01/16 03:30:51;;;;;;;29.50;18.70;;;4.30;99.90;;;;;;5071518;28;20194;-68
2022/01/16 03:33:17;;;;;;;26.87;17.27;;;4.30;99.90;;;;;;5072676;28;20414;-68
2022/01/16 03:35:43;;;;;;;29.23;18.03;;;4.10;99.90;;;;;;5070454;28;20500;-67
2022/01/16 03:38:09;;;;;;;24.67;17.97;;;4.20;99.90;;;;;;5070574;28;20193;-68
2022/01/16 03:40:35;;;;;;;27.90;18.30;;;4.20;99.90;;;;;;5056745;28;20416;-68
2022/01/16 03:43:11;;;;;;;26.17;18.17;;;4.20;99.90;;;;;;5057113;28;20786;-68
2022/01/16 03:45:37;;;;;;;29.90;18.87;;;4.20;99.90;;;;;;5055150;28;20388;-67
2022/01/16 03:48:03;;;;;;;28.93;17.33;;;4.20;99.90;;;;;;5065814;28;20413;-68
2022/01/16 03:50:29;;;;;;;31.63;19.27;;;4.30;99.90;;;;;;5055559;28;20463;-68
2022/01/16 03:52:54;;;;;;;30.27;19.80;;;4.20;99.90;;;;;;5075190;28;20425;-68
2022/01/16 03:55:20;;;;;;;31.67;21.27;;;4.20;99.90;;;;;;5063430;28;20573;-66
2022/01/16 03:57:46;;;;;;;32.87;19.70;;;4.20;99.90;;;;;;5062491;28;20194;-68
2022/01/16 04:00:12;;;;;;;31.33;19.20;;;4.20;99.90;;;;;;5062121;28;20177;-68
2022/01/16 04:02:37;;;;;;;29.90;20.40;;;4.20;99.90;;;;;;5042927;28;20182;-69
2022/01/16 04:05:03;;;;;;;33.87;20.43;;;4.20;99.90;;;;;;5056289;28;20435;-68
2022/01/16 04:07:35;;;;;;;37.20;20.80;;;4.30;99.90;;;;;;5054300;28;20702;-68
2022/01/16 04:10:02;;;;;;;39.00;22.27;;;4.20;99.90;;;;;;5054598;28;20910;-69
2022/01/16 04:12:27;;;;;;;36.73;22.30;;;4.20;99.90;;;;;;5054380;28;20412;-69
2022/01/16 04:17:23;;;;;;;37.33;22.57;;;4.30;99.90;;;;;;5054362;28;20205;-69
2022/01/16 04:19:50;;;;;;;40.67;24.27;;;4.30;99.90;;;;;;5053970;28;20658;-68
2022/01/16 04:22:17;;;;;;;38.27;24.27;;;4.30;99.90;;;;;;5054220;28;20973;-69
2022/01/16 04:24:43;;;;;;;41.93;23.97;;;4.30;99.90;;;;;;5036160;28;20926;-69
2022/01/16 04:27:12;;;;;;;40.43;24.40;;;4.40;99.90;;;;;;5052467;28;20452;-68
2022/01/16 04:29:39;;;;;;;36.33;23.63;;;4.40;99.90;;;;;;5033539;28;20880;-68
2022/01/16 04:32:05;;;;;;;38.43;23.90;;;4.40;99.90;;;;;;5041264;28;20471;-68
2022/01/16 04:34:30;;;;;;;38.53;24.07;;;4.50;99.90;;;;;;5039060;28;20466;-67
2022/01/16 04:36:56;;;;;;;40.33;24.57;;;4.40;99.90;;;;;;5044977;28;20429;-69
2022/01/16 04:39:30;;;;;;;39.87;24.63;;;4.40;99.90;;;;;;5053463;28;20205;-69
2022/01/16 04:44:40;;;;;;;39.03;25.87;;;4.40;99.90;;;;;;5053965;28;20407;-68
2022/01/16 04:47:05;;;;;;;39.93;25.63;;;4.40;99.90;;;;;;5053439;28;20440;-68
2022/01/16 04:49:31;;;;;;;39.30;25.00;;;4.40;99.90;;;;;;5036083;28;20174;-69
2022/01/16 04:51:56;;;;;;;38.90;25.30;;;4.40;99.90;;;;;;5035461;28;20191;-69
2022/01/16 04:54:22;;;;;;;43.57;27.30;;;4.40;99.90;;;;;;5053603;28;20177;-68
2022/01/16 04:56:47;;;;;;;43.50;25.63;;;4.40;99.90;;;;;;5053109;28;20187;-68
2022/01/16 04:59:13;;;;;;;41.77;27.17;;;4.30;99.90;;;;;;5053344;28;20230;-68
2022/01/16 05:01:39;;;;;;;47.83;28.03;;;4.40;99.90;;;;;;5035339;28;20555;-68
2022/01/16 05:04:04;;;;;;;41.77;26.67;;;4.40;99.90;;;;;;5053443;28;20499;-68
2022/01/16 05:06:30;;;;;;;41.43;26.40;;;4.40;99.90;;;;;;5052849;28;20222;-68
2022/01/16 05:08:55;;;;;;;38.70;26.30;;;4.50;99.90;;;;;;5053292;28;20235;-68
2022/01/16 05:11:25;;;;;;;40.13;26.40;;;4.60;99.90;;;;;;5053185;28;20244;-68
2022/01/16 05:19:13;;;;;;;41.20;27.13;;;4.40;99.90;;;;;;5040518;28;20276;-69
2022/01/16 05:21:40;;;;;;;43.87;27.20;;;4.50;99.90;;;;;;5030847;28;20412;-68
2022/01/16 05:24:10;;;;;;;44.60;29.30;;;4.50;99.90;;;;;;5044488;28;20444;-68
2022/01/16 05:26:40;;;;;;;42.80;27.77;;;4.30;99.90;;;;;;5034188;28;20539;-68
2022/01/16 05:29:06;;;;;;;45.00;27.40;;;4.30;99.90;;;;;;5052952;28;20405;-68
2022/01/16 05:31:31;;;;;;;51.10;30.93;;;4.40;99.90;;;;;;5052648;28;20444;-68
2022/01/16 05:33:57;;;;;;;53.03;31.30;;;4.40;99.90;;;;;;5052568;28;20493;-67
2022/01/16 05:36:23;;;;;;;52.70;30.70;;;4.30;99.90;;;;;;5052205;28;20193;-68
2022/01/16 05:38:49;;;;;;;54.90;32.93;;;4.30;99.90;;;;;;5034446;28;20167;-68
2022/01/16 05:41:18;;;;;;;49.17;30.40;;;4.30;99.90;;;;;;5052439;28;20174;-68
2022/01/16 05:43:44;;;;;;;55.33;32.90;;;4.40;99.90;;;;;;5052578;28;20464;-68
2022/01/16 05:46:09;;;;;;;51.07;31.27;;;4.40;99.90;;;;;;5052185;28;20438;-69
2022/01/16 05:48:35;;;;;;;51.70;29.77;;;4.40;99.90;;;;;;5052417;28;20424;-68
2022/01/16 05:51:00;;;;;;;57.03;34.53;;;4.50;99.90;;;;;;5052162;28;20204;-70
2022/01/16 05:53:26;;;;;;;54.50;33.40;;;4.50;99.90;;;;;;5052643;28;20250;-68
2022/01/16 05:55:51;;;;;;;56.90;33.20;;;4.30;99.90;;;;;;5052142;28;20205;-69
2022/01/16 05:58:17;;;;;;;54.30;33.00;;;4.30;99.90;;;;;;5052333;28;20172;-69
2022/01/16 06:00:44;;;;;;;53.50;31.43;;;4.30;99.90;;;;;;5052192;28;20178;-69
2022/01/16 06:03:10;;;;;;;55.10;31.73;;;4.30;99.90;;;;;;5034399;28;20204;-69
2022/01/16 06:05:35;;;;;;;65.93;35.70;;;4.20;99.90;;;;;;5034145;28;20793;-69
2022/01/16 06:08:07;;;;;;;55.20;31.97;;;4.30;99.90;;;;;;5052308;28;20184;-70
2022/01/16 06:10:33;;;;;;;55.83;32.90;;;4.30;99.90;;;;;;5034323;28;20191;-69
2022/01/16 06:12:59;;;;;;;65.17;35.97;;;4.40;99.90;;;;;;5052123;28;20413;-69
2022/01/16 06:15:24;;;;;;;64.53;35.50;;;4.40;99.90;;;;;;5051795;28;20894;-68
2022/01/16 06:17:50;;;;;;;52.53;30.83;;;4.40;99.90;;;;;;5051813;28;20196;-69
2022/01/16 06:20:16;;;;;;;58.07;32.53;;;4.40;99.90;;;;;;5052264;28;20188;-68
2022/01/16 06:22:45;;;;;;;53.10;32.00;;;4.40;99.90;;;;;;5052126;28;20480;-70
2022/01/16 06:25:12;;;;;;;52.47;31.70;;;4.40;99.90;;;;;;5052048;28;20448;-69
2022/01/16 06:27:38;;;;;;;57.43;32.50;;;4.50;99.90;;;;;;5051345;28;20532;-69
2022/01/16 06:30:05;;;;;;;51.97;32.67;;;4.40;99.90;;;;;;5051674;28;20416;-69
2022/01/16 06:32:31;;;;;;;49.87;30.20;;;4.50;99.90;;;;;;5051546;28;20445;-68
2022/01/16 06:34:56;;;;;;;51.80;31.40;;;4.50;99.90;;;;;;5051892;28;20438;-68
2022/01/16 06:37:22;;;;;;;53.47;31.60;;;4.50;99.90;;;;;;5051661;28;20228;-68
2022/01/16 06:39:47;;;;;;;55.13;33.50;;;4.60;99.90;;;;;;5052059;28;20180;-68
2022/01/16 06:42:13;;;;;;;49.33;30.67;;;4.60;99.90;;;;;;5051626;28;20251;-68
2022/01/16 06:44:38;;;;;;;56.47;33.00;;;4.50;99.90;;;;;;5051857;28;20696;-68
2022/01/16 06:47:04;;;;;;;54.53;31.53;;;4.60;99.90;;;;;;5051344;28;20275;-68
2022/01/16 06:49:29;;;;;;;49.43;30.50;;;4.60;99.90;;;;;;5052063;28;20187;-69
2022/01/16 06:51:55;;;;;;;49.03;30.57;;;4.50;99.90;;;;;;5055545;28;20230;-68
2022/01/16 06:54:20;;;;;;;50.23;30.13;;;4.50;99.90;;;;;;5055671;28;20186;-69
2022/01/16 06:56:46;;;;;;;48.63;31.00;;;4.60;99.90;;;;;;5055308;28;20256;-68
2022/01/16 06:59:12;;;;;;;48.40;32.00;;;4.60;99.90;;;;;;5055572;28;20256;-68
2022/01/16 07:01:37;;;;;;;49.10;31.70;;;4.70;99.90;;;;;;5055584;28;20513;-68
2022/01/16 07:04:03;;;;;;;52.23;33.47;;;4.70;99.90;;;;;;5055882;28;20171;-68
2022/01/16 07:06:28;;;;;;;53.70;33.40;;;4.60;99.90;;;;;;5055302;28;20551;-68
2022/01/16 07:08:54;;;;;;;51.87;31.90;;;4.40;99.90;;;;;;5055564;28;20180;-68
2022/01/16 07:11:19;;;;;;;50.90;32.73;;;4.40;99.90;;;;;;5055511;28;20202;-69
2022/01/16 07:13:45;;;;;;;53.27;30.57;;;4.40;99.90;;;;;;5055414;28;20179;-68
2022/01/16 07:16:11;;;;;;;51.43;31.50;;;4.40;99.90;;;;;;5037317;28;20191;-68
2022/01/16 07:18:36;;;;;;;48.60;31.20;;;4.40;99.90;;;;;;5055370;28;20578;-68
2022/01/16 07:21:02;;;;;;;52.90;31.10;;;4.50;99.90;;;;;;5055456;28;20180;-68
2022/01/16 07:23:27;;;;;;;56.13;33.17;;;4.60;99.90;;;;;;5023990;28;20239;-68
2022/01/16 07:25:53;;;;;;;50.17;29.60;;;4.50;99.90;;;;;;5037048;28;20300;-68
2022/01/16 07:28:21;;;;;;;46.63;31.30;;;4.50;99.90;;;;;;5067613;22;20161;-69
2022/01/16 07:30:47;;;;;;;48.77;32.93;;;4.60;99.90;;;;;;5058678;28;20502;-68
2022/01/16 07:33:12;;;;;;;48.03;31.43;;;4.60;99.90;;;;;;5064279;28;20514;-69
2022/01/16 07:35:38;;;;;;;51.77;32.20;;;4.60;99.90;;;;;;5074721;28;20434;-70
2022/01/16 07:38:06;;;;;;;59.30;34.87;;;4.50;99.90;;;;;;5074764;28;20221;-69
2022/01/16 07:40:32;;;;;;;57.40;34.43;;;4.50;99.90;;;;;;5074338;28;20407;-69
2022/01/16 07:42:59;;;;;;;56.30;33.07;;;4.50;99.90;;;;;;5074821;28;20511;-70
2022/01/16 07:45:25;;;;;;;50.37;31.87;;;4.50;99.90;;;;;;5074611;28;20406;-69
2022/01/16 07:47:51;;;;;;;57.73;32.87;;;4.50;99.90;;;;;;5074423;28;20442;-69
2022/01/16 07:50:17;;;;;;;51.20;32.80;;;4.50;99.90;;;;;;5056378;28;20436;-69
2022/01/16 07:52:42;;;;;;;53.33;32.00;;;4.60;99.90;;;;;;5074637;28;20509;-69
2022/01/16 07:55:09;;;;;;;49.40;31.67;;;4.60;99.90;;;;;;5074559;28;20811;-69
2022/01/16 07:57:35;;;;;;;51.37;32.37;;;4.70;99.90;;;;;;5074523;28;20171;-69
2022/01/16 08:00:01;;;;;;;52.37;32.07;;;4.80;99.90;;;;;;5074477;28;20419;-69
2022/01/16 08:02:27;;;;;;;50.43;32.87;;;4.80;99.90;;;;;;5043240;28;20420;-69
2022/01/16 08:04:52;;;;;;;48.90;30.17;;;4.80;99.90;;;;;;5049091;28;20435;-68
2022/01/16 08:07:17;;;;;;;53.87;32.00;;;4.70;99.90;;;;;;5049178;28;20185;-68
2022/01/16 08:09:43;;;;;;;57.87;32.80;;;4.70;99.90;;;;;;5054540;28;20213;-70
2022/01/16 08:12:11;;;;;;;54.43;33.37;;;4.70;99.90;;;;;;5044970;28;20208;-69
2022/01/16 08:14:37;;;;;;;53.50;32.30;;;4.60;99.90;;;;;;5061440;28;20641;-70
2022/01/16 08:17:03;;;;;;;50.33;30.43;;;4.70;99.90;;;;;;5059901;28;20792;-69
2022/01/16 08:19:29;;;;;;;51.90;32.40;;;4.70;99.90;;;;;;5054362;28;20445;-70
2022/01/16 08:21:55;;;;;;;47.10;30.63;;;4.80;99.90;;;;;;5068888;28;20415;-70
2022/01/16 08:24:23;;;;;;;49.23;31.80;;;4.90;99.90;;;;;;5074488;28;20176;-71
2022/01/16 08:26:48;;;;;;;56.40;33.30;;;4.90;99.90;;;;;;5073917;28;20800;-70
2022/01/16 08:29:14;;;;;;;55.13;30.73;;;4.80;99.90;;;;;;5074040;28;20447;-71
2022/01/16 08:31:40;;;;;;;55.30;33.00;;;4.80;99.90;;;;;;5074383;28;20312;-71
2022/01/16 08:34:05;;;;;;;52.00;32.30;;;4.80;99.90;;;;;;5065921;28;20180;-70
2022/01/16 08:36:31;;;;;;;53.30;33.00;;;4.80;99.90;;;;;;5033799;28;20305;-69
2022/01/16 08:38:57;;;;;;;50.03;31.37;;;4.80;99.90;;;;;;5034165;28;20436;-71
2022/01/16 08:41:24;;;;;;;53.73;31.87;;;4.80;99.90;;;;;;5034362;28;20813;-69
2022/01/16 08:43:50;;;;;;;49.83;31.43;;;4.80;99.90;;;;;;5033642;28;20202;-71
2022/01/16 08:46:15;;;;;;;48.07;30.90;;;4.80;99.90;;;;;;5033380;28;20421;-70
2022/01/16 08:48:41;;;;;;;52.17;32.00;;;4.80;99.90;;;;;;5033803;28;20436;-69
2022/01/16 08:51:07;;;;;;;51.13;32.47;;;4.70;99.90;;;;;;5016535;28;20216;-68
2022/01/16 08:53:33;;;;;;;53.40;31.50;;;4.70;99.90;;;;;;5035007;28;20440;-70
2022/01/16 08:56:00;;;;;;;47.87;31.00;;;4.80;99.90;;;;;;5033710;28;20496;-71
2022/01/16 08:58:26;;;;;;;53.73;33.67;;;4.80;99.90;;;;;;5034668;28;20205;-70
2022/01/16 09:00:51;;;;;;;52.87;32.63;;;4.80;99.90;;;;;;5034524;28;20532;-70
2022/01/16 09:03:20;;;;;;;51.00;31.63;;;4.80;99.90;;;;;;5033966;28;20481;-70
2022/01/16 09:05:46;;;;;;;50.57;32.70;;;4.80;99.90;;;;;;5034048;28;20232;-69
2022/01/16 09:08:13;;;;;;;53.67;32.07;;;4.80;99.90;;;;;;5034050;28;20579;-69
2022/01/16 09:10:38;;;;;;;52.33;29.80;;;4.90;99.90;;;;;;5033239;28;20467;-70
2022/01/16 09:13:04;;;;;;;55.13;31.40;;;4.90;99.90;;;;;;5038306;28;20558;-69
2022/01/16 09:15:30;;;;;;;47.17;30.40;;;5.00;99.90;;;;;;5048422;28;20204;-69
2022/01/16 09:17:56;;;;;;;47.83;31.20;;;5.00;99.90;;;;;;5063338;28;20464;-71
2022/01/16 09:20:22;;;;;;;51.70;31.03;;;4.90;99.90;;;;;;5063039;28;20434;-68
2022/01/16 09:22:49;;;;;;;50.83;31.30;;;5.00;99.90;;;;;;5047490;28;20221;-70
2022/01/16 09:25:17;;;;;;;48.23;30.03;;;5.10;99.90;;;;;;5049842;28;20455;-70
2022/01/16 09:27:43;;;;;;;50.50;32.43;;;5.10;99.90;;;;;;5054517;28;20447;-68
2022/01/16 09:30:10;;;;;;;51.37;32.13;;;5.10;99.90;;;;;;5057077;28;20827;-70
2022/01/16 09:32:36;;;;;;;50.13;31.73;;;5.20;99.90;;;;;;5044980;28;20492;-74
2022/01/16 09:35:05;;;;;;;45.30;29.37;;;5.20;99.90;;;;;;5050983;28;20450;-72
2022/01/16 09:37:30;;;;;;;47.83;31.57;;;5.20;99.90;;;;;;5043243;28;20420;-70
2022/01/16 09:39:58;;;;;;;46.77;29.87;;;5.30;99.90;;;;;;5051181;28;20582;-70
2022/01/16 09:42:24;;;;;;;45.93;30.20;;;5.30;99.90;;;;;;5056987;28;20177;-69
2022/01/16 09:44:51;;;;;;;50.50;30.50;;;5.20;99.90;;;;;;5055108;28;20859;-71
2022/01/16 09:47:18;;;;;;;48.30;29.70;;;5.20;99.90;;;;;;5042875;28;20441;-68
2022/01/16 09:49:44;;;;;;;48.27;30.27;;;5.20;99.90;;;;;;5038121;28;20561;-69
2022/01/16 09:52:10;;;;;;;45.33;29.70;;;5.20;99.90;;;;;;5050434;28;20489;-69
2022/01/16 09:54:37;;;;;;;42.43;28.87;;;5.20;99.90;;;;;;5049659;28;20444;-70
2022/01/16 09:57:03;;;;;;;43.43;29.40;;;5.10;99.90;;;;;;5050374;28;20411;-71
2022/01/16 09:59:29;;;;;;;48.63;30.40;;;5.10;99.90;;;;;;5041313;28;20483;-70
2022/01/16 10:01:55;;;;;;;50.13;31.30;;;5.10;99.90;;;;;;5046349;28;20427;-70
2022/01/16 10:04:31;;;;;;;47.20;29.83;;;5.20;99.90;;;;;;5043347;28;20810;-70
2022/01/16 10:07:03;;;;;;;50.70;29.63;;;5.20;99.90;;;;;;5051477;28;20405;-70
2022/01/16 10:09:29;;;;;;;50.23;30.40;;;5.30;99.90;;;;;;5053140;28;20440;-70
2022/01/16 10:12:01;;;;;;;48.63;30.80;;;5.30;99.90;;;;;;5038685;28;20461;-70
2022/01/16 10:14:36;;;;;;;43.33;29.13;;;5.40;99.90;;;;;;5032271;28;20565;-70
2022/01/16 10:17:10;;;;;;;49.63;31.60;;;5.40;99.90;;;;;;5032370;28;20524;-71
2022/01/16 10:19:36;;;;;;;48.10;29.93;;;5.50;99.90;;;;;;5033927;28;20434;-70
2022/01/16 10:22:05;;;;;;;45.97;29.17;;;5.50;99.90;;;;;;5034250;28;20474;-69
2022/01/16 10:24:34;;;;;;;45.17;29.03;;;5.50;99.90;;;;;;5032987;28;20790;-70
2022/01/16 10:27:09;;;;;;;43.10;28.30;;;5.50;99.90;;;;;;5033343;28;20409;-71
2022/01/16 10:30:07;;;;;;;49.40;29.47;;;5.60;99.90;;;;;;5033075;28;20451;-69
2022/01/16 10:32:36;;;;;;;43.83;28.37;;;5.50;99.90;;;;;;4934152;29;20425;-70
2022/01/16 10:35:38;;;;;;;45.30;28.63;;;5.50;99.90;;;;;;4934242;29;20406;-70
2022/01/16 10:38:03;;;;;;;48.73;26.73;;;5.60;99.90;;;;;;4896701;29;20806;-70
2022/01/16 10:40:35;;;;;;;39.73;27.37;;;5.70;99.90;;;;;;4896980;29;20408;-69
2022/01/16 10:43:05;;;;;;;39.13;26.60;;;5.70;99.90;;;;;;4897445;29;20187;-70
2022/01/16 10:45:32;;;;;;;42.80;28.10;;;5.90;99.90;;;;;;4904664;29;20431;-67
2022/01/16 10:48:00;;;;;;;41.93;26.97;;;5.90;99.90;;;;;;4916318;29;21038;-69
2022/01/16 10:50:36;;;;;;;42.23;26.77;;;5.90;99.90;;;;;;4916833;29;20929;-69
2022/01/16 10:53:03;;;;;;;42.80;29.13;;;6.00;99.90;;;;;;4917977;29;20427;-70
2022/01/16 10:55:41;;;;;;;36.73;25.53;;;6.00;99.90;;;;;;4919099;29;20414;-70
2022/01/16 10:58:11;;;;;;;40.77;28.10;;;6.00;99.90;;;;;;4915989;29;20403;-69
2022/01/16 11:00:40;;;;;;;43.83;27.30;;;5.90;99.90;;;;;;4915798;29;20567;-70
2022/01/16 11:03:08;;;;;;;40.67;25.53;;;5.90;99.90;;;;;;4915537;29;20498;-70
2022/01/16 11:05:37;;;;;;;44.93;28.40;;;5.90;99.90;;;;;;4899392;29;20863;-70
2022/01/16 11:08:11;;;;;;;36.30;25.57;;;5.90;99.90;;;;;;4927471;28;20938;-70
2022/01/16 11:10:39;;;;;;;41.10;26.37;;;5.80;99.90;;;;;;4992143;28;20859;-70
2022/01/16 11:13:10;;;;;;;42.67;27.67;;;5.90;99.90;;;;;;5031113;28;20902;-71
2022/01/16 11:15:38;;;;;;;39.90;24.73;;;5.90;99.90;;;;;;5032903;28;20402;-70
2022/01/16 11:18:05;;;;;;;42.00;26.17;;;5.90;99.90;;;;;;5033345;28;20831;-70
2022/01/16 11:20:34;;;;;;;39.10;26.23;;;5.90;99.90;;;;;;5033445;28;20410;-69
2022/01/16 11:23:47;;;;;;;42.00;27.10;;;5.90;99.90;;;;;;5033837;28;20488;-70
2022/01/16 11:26:01;;;;;;;51.03;28.87;;;5.70;99.90;;;;;;5029159;28;20919;-70
2022/01/16 11:28:27;;;;;;;46.17;28.20;;;5.70;99.90;;;;;;5032857;28;20449;-70
2022/01/16 11:30:57;;;;;;;48.60;28.03;;;5.60;99.90;;;;;;5048875;28;20467;-70
2022/01/16 11:33:25;;;;;;;43.67;28.33;;;5.60;99.90;;;;;;5047565;28;20167;-69
2022/01/16 11:36:13;;;;;;;42.07;26.40;;;5.70;99.90;;;;;;5030775;28;20437;-69
2022/01/16 11:38:53;;;;;;;50.97;28.67;;;5.80;99.90;;;;;;5040507;28;20420;-68
2022/01/16 11:41:25;;;;;;;44.03;27.97;;;5.80;99.90;;;;;;5054875;28;20793;-69
2022/01/16 11:43:52;;;;;;;44.07;27.27;;;5.70;99.90;;;;;;5054862;28;20409;-70
2022/01/16 11:46:25;;;;;;;45.83;28.13;;;5.80;99.90;;;;;;5021236;28;20425;-70
2022/01/16 11:49:04;;;;;;;39.33;27.13;;;5.80;99.90;;;;;;5018665;28;20428;-70
2022/01/16 11:51:35;;;;;;;41.73;27.37;;;5.80;99.90;;;;;;5036269;28;20441;-70
2022/01/16 11:54:19;;;;;;;48.80;27.90;;;5.80;99.90;;;;;;5036505;28;20413;-69
2022/01/16 11:56:44;;;;;;;41.87;26.60;;;5.90;99.90;;;;;;5036557;28;20405;-70
2022/01/16 11:59:20;;;;;;;45.53;27.70;;;5.90;99.90;;;;;;5036332;28;20445;-70
2022/01/16 12:01:46;;;;;;;46.13;27.00;;;5.90;99.90;;;;;;5035838;28;20201;-71
2022/01/16 12:04:30;;;;;;;49.00;29.10;;;5.90;99.90;;;;;;5034883;28;20449;-71
2022/01/16 12:06:59;;;;;;;46.60;29.10;;;5.90;99.90;;;;;;5034718;28;20844;-71
2022/01/16 12:09:34;;;;;;;46.97;27.77;;;5.90;99.90;;;;;;5034986;28;21008;-70
2022/01/16 12:12:01;;;;;;;47.67;28.17;;;6.00;99.90;;;;;;5034983;28;20465;-71
2022/01/16 12:14:50;;;;;;;43.17;26.40;;;6.00;99.90;;;;;;5035335;28;20406;-71
2022/01/16 12:17:42;;;;;;;52.40;30.80;;;6.00;99.90;;;;;;5018911;28;20546;-71
2022/01/16 12:20:24;;;;;;;47.07;28.00;;;6.00;99.90;;;;;;5033610;28;20722;-71
2022/01/16 12:22:53;;;;;;;46.43;27.70;;;6.00;99.90;;;;;;5034737;28;20432;-71
2022/01/16 12:25:32;;;;;;;48.30;29.77;;;6.00;99.90;;;;;;5037659;28;20836;-70
2022/01/16 12:28:02;;;;;;;53.90;28.67;;;6.00;99.90;;;;;;5037232;28;20418;-69
2022/01/16 12:30:52;;;;;;;43.93;27.07;;;6.00;99.90;;;;;;5035416;28;20418;-70
2022/01/16 12:33:23;;;;;;;52.43;28.70;;;6.10;99.90;;;;;;5036548;28;20418;-71
2022/01/16 12:35:50;;;;;;;48.03;27.70;;;6.10;99.90;;;;;;5036345;28;20491;-70
2022/01/16 12:38:20;;;;;;;45.90;28.53;;;6.10;99.90;;;;;;5035341;28;20413;-69
2022/01/16 12:40:52;;;;;;;43.00;26.80;;;6.20;99.90;;;;;;5036553;28;20414;-71
2022/01/16 12:43:30;;;;;;;42.53;27.80;;;6.10;99.90;;;;;;5036810;28;20449;-71
2022/01/16 12:45:57;;;;;;;42.20;25.07;;;6.10;99.90;;;;;;5035449;28;20821;-71
2022/01/16 12:48:23;;;;;;;48.00;27.20;;;6.10;99.90;;;;;;5033799;28;20445;-71
2022/01/16 12:50:49;;;;;;;40.23;25.97;;;6.20;99.90;;;;;;5036205;28;20506;-71
2022/01/16 12:53:34;;;;;;;43.63;27.30;;;6.10;99.90;;;;;;5034207;28;20181;-69
2022/01/16 12:56:22;;;;;;;47.80;26.60;;;6.10;99.90;;;;;;5033308;28;20429;-70
2022/01/16 12:58:50;;;;;;;43.37;26.20;;;6.00;99.90;;;;;;5033923;28;20946;-70
2022/01/16 13:01:16;;;;;;;43.37;25.77;;;6.00;99.90;;;;;;5033564;28;20414;-70
2022/01/16 13:03:44;;;;;;;44.77;25.53;;;6.10;99.90;;;;;;5033248;28;20416;-70
2022/01/16 13:06:34;;;;;;;43.97;25.13;;;6.10;99.90;;;;;;5043919;28;20178;-72
2022/01/16 13:09:09;;;;;;;42.50;25.13;;;6.00;99.90;;;;;;5050939;28;20440;-69
2022/01/16 13:11:40;;;;;;;40.90;23.70;;;6.00;99.90;;;;;;5054781;28;20801;-70
2022/01/16 13:14:08;;;;;;;42.07;24.60;;;6.00;99.90;;;;;;5035897;28;20429;-69
2022/01/16 13:16:43;;;;;;;35.90;24.60;;;6.00;99.90;;;;;;5059169;28;20414;-70
2022/01/16 13:19:14;;;;;;;40.93;24.87;;;6.00;99.90;;;;;;5063601;28;20938;-69
2022/01/16 13:22:01;;;;;;;43.23;25.10;;;6.10;99.90;;;;;;5044818;28;20416;-73
2022/01/16 13:24:33;;;;;;;39.33;24.13;;;6.10;99.90;;;;;;5037853;28;20415;-69
2022/01/16 13:27:01;;;;;;;42.07;24.67;;;6.00;99.90;;;;;;5034629;28;20449;-69
2022/01/16 13:29:27;;;;;;;42.20;24.33;;;6.00;99.90;;;;;;5080064;22;20486;-70
2022/01/16 13:31:53;;;;;;;39.43;23.80;;;6.00;99.90;;;;;;5074272;28;20470;-68
2022/01/16 13:34:35;;;;;;;34.57;23.00;;;6.10;99.90;;;;;;5087616;28;20645;-68